Anthony, Kansas
Current Conditions -  °F | °C
As of 7:30 PM on Monday 24 Nov 2014 (Local Time) from KAVK Reporting Station
Broken Clouds Broken Clouds  
Wind Chill: 45°   Ceiling: 9000
Heat Index: 45°   Visibility: 10mi
Dew Point: 16°   Wind: 3mph
Humidity: 31%   Direction: 10°N
Pressure: 30.07"   Gusts: NA
Location:  37.15°N, 98.03°W
Report Text: KAVK 250130Z AUTO 01003KT 10SM BKN090 07/M09 A3007 RMK AO2
Loading
Personal Weather Stations






























Interactive Weather Map New forecast layout! Learn more

10-Day Weather Forecast

Advertisements
Track Severe Weather on mobile